Terminal Aerodrome Forecast
Issued by NWS

Current Version | Previous Version | Text Only | Print | Product List | Glossary Off
Versions: 1 2 3 4 5 6 7 8 9 10 11 12 13 14 15 16 17 18 19 20 21 22 23 24 25 26 27 28 29 30

000
FTUS41 KILN 251500 AAC
TAFLUK
TAF AMD
KLUK 251541Z 2516/2612 20011G20KT P6SM VCSH SCT050 BKN090
     FM252300 18006KT P6SM BKN060
     FM261000 16004KT 5SM BR BKN035=

USA.gov is the U.S. government's official web portal to all federal, state and local government web resources and services.